createdAt,value
2023-02-13T00:02:06.665Z,15.75
2023-02-13T00:07:08.398Z,13.82
2023-02-13T00:12:10.097Z,11.95
2023-02-13T00:17:11.541Z,19.98
2023-02-13T00:22:13.093Z,16.45
2023-02-13T00:27:14.565Z,14.60
2023-02-13T00:32:16.050Z,15.90
2023-02-13T00:37:17.726Z,12.63
2023-02-13T00:42:20.521Z,18.35
2023-02-13T00:47:22.086Z,18.33
2023-02-13T00:52:23.581Z,16.33
2023-02-13T00:57:24.989Z,17.35
2023-02-13T01:02:26.734Z,20.38
2023-02-13T01:07:28.188Z,20.50
2023-02-13T01:12:29.703Z,17.83
2023-02-13T01:17:31.225Z,21.50
2023-02-13T01:22:32.770Z,19.92
2023-02-13T01:27:34.264Z,20.65
2023-02-13T01:32:35.770Z,20.20
2023-02-13T01:37:37.549Z,18.38
2023-02-13T01:42:39.583Z,24.50
2023-02-13T01:47:49.173Z,23.58
2023-02-13T01:53:16.721Z,26.65
2023-02-13T01:58:23.788Z,27.70
2023-02-13T02:03:29.263Z,29.38
2023-02-13T02:08:31.848Z,30.80
2023-02-13T02:13:33.316Z,26.45
2023-02-13T02:18:34.760Z,29.33
2023-02-13T02:24:07.148Z,27.05
2023-02-13T02:29:29.152Z,29.33
2023-02-13T02:34:52.426Z,25.95
2023-02-13T02:39:56.929Z,23.60
2023-02-13T02:45:11.837Z,22.17
2023-02-13T02:50:35.215Z,22.83
2023-02-13T02:55:48.698Z,24.95
2023-02-13T03:01:09.968Z,21.63
2023-02-13T03:06:19.910Z,20.40
2023-02-13T03:11:40.895Z,16.42
2023-02-13T03:17:01.286Z,18.23
2023-02-13T03:22:34.046Z,14.98
2023-02-13T03:28:12.261Z,15.07
2023-02-13T03:33:32.062Z,16.80
2023-02-13T03:38:47.456Z,16.77
2023-02-13T03:43:52.701Z,15.35
2023-02-13T03:49:14.886Z,20.77
2023-02-13T03:54:19.053Z,16.88
2023-02-13T03:59:26.254Z,15.45
2023-02-13T04:04:33.360Z,19.83
2023-02-13T04:09:39.109Z,16.20
2023-02-13T04:14:50.860Z,20.65
2023-02-13T04:19:53.012Z,16.23
2023-02-13T04:24:54.578Z,12.32
2023-02-13T04:29:55.995Z,16.67
2023-02-13T04:34:57.408Z,14.52
2023-02-13T04:39:58.842Z,23.48
2023-02-13T04:45:00.272Z,18.70
2023-02-13T04:50:01.833Z,16.90
2023-02-13T04:55:03.989Z,18.83
2023-02-13T05:00:06.846Z,17.98
2023-02-13T05:05:08.360Z,20.92
2023-02-13T05:10:11.760Z,17.70
2023-02-13T05:15:13.170Z,13.25
2023-02-13T05:20:15.155Z,16.98
2023-02-13T05:25:16.696Z,18.13
2023-02-13T05:30:18.080Z,18.83
2023-02-13T05:35:19.510Z,15.93
2023-02-13T05:40:22.922Z,19.55
2023-02-13T05:45:24.390Z,20.08
2023-02-13T05:50:25.837Z,14.65
2023-02-13T05:55:27.378Z,24.05
2023-02-13T06:00:28.978Z,22.90
2023-02-13T06:05:30.431Z,23.10
2023-02-13T06:10:31.935Z,21.77
2023-02-13T06:15:33.609Z,21.77
2023-02-13T06:20:35.736Z,20.30
2023-02-13T06:25:37.569Z,38.05
2023-02-13T06:30:39.102Z,24.23
2023-02-13T06:35:40.640Z,24.60
2023-02-13T06:40:43.146Z,19.80
2023-02-13T06:45:47.018Z,23.30
2023-02-13T06:50:52.114Z,18.85
2023-02-13T06:55:55.058Z,50.78
2023-02-13T07:00:56.919Z,47.42
2023-02-13T07:05:58.629Z,136.45
2023-02-13T07:11:00.110Z,137.25
2023-02-13T07:16:01.691Z,47.50
2023-02-13T07:21:03.432Z,87.93
2023-02-13T07:26:05.080Z,75.35
2023-02-13T07:31:06.746Z,101.32
2023-02-13T07:36:08.587Z,159.68
2023-02-13T07:41:10.020Z,154.55
2023-02-13T07:46:11.534Z,301.77
2023-02-13T07:51:12.990Z,178.70
2023-02-13T07:56:14.421Z,184.05
2023-02-13T08:01:17.199Z,271.70
2023-02-13T08:06:20.302Z,208.25
2023-02-13T08:11:49.833Z,89.50
2023-02-13T08:16:52.508Z,36.50
2023-02-13T08:21:54.219Z,111.80
2023-02-13T08:26:56.288Z,73.85
2023-02-13T08:31:57.889Z,123.05
2023-02-13T08:36:59.454Z,48.05
2023-02-13T08:42:01.030Z,100.60
2023-02-13T08:47:03.923Z,42.80
2023-02-13T08:52:05.888Z,69.65
2023-02-13T08:57:08.653Z,86.60
2023-02-13T09:02:12.152Z,112.50
2023-02-13T09:07:13.666Z,83.30
2023-02-13T09:12:15.197Z,135.93
2023-02-13T09:17:19.068Z,74.40
2023-02-13T09:22:20.543Z,98.20
2023-02-13T09:27:22.316Z,145.05
2023-02-13T09:32:23.787Z,58.10
2023-02-13T09:37:25.221Z,57.55
2023-02-13T09:42:31.594Z,75.07
2023-02-13T09:47:37.272Z,59.83
2023-02-13T09:52:39.661Z,67.15
2023-02-13T09:57:53.620Z,55.10
2023-02-13T10:02:55.043Z,42.55
2023-02-13T10:07:59.393Z,32.42
2023-02-13T10:13:16.193Z,30.42
2023-02-13T10:18:22.237Z,26.83
2023-02-13T10:23:37.261Z,30.52
2023-02-13T10:28:44.021Z,27.63
2023-02-13T10:33:58.859Z,26.60
2023-02-13T10:39:19.873Z,29.90
2023-02-13T10:44:33.744Z,25.50
2023-02-13T10:49:44.470Z,33.30
2023-02-13T10:55:04.951Z,30.40
2023-02-13T11:00:34.147Z,30.77
2023-02-13T11:05:40.077Z,30.55
2023-02-13T11:10:41.532Z,27.05
2023-02-13T11:15:43.171Z,29.92
2023-02-13T11:20:48.038Z,37.13
2023-02-13T11:26:03.018Z,34.92
2023-02-13T11:31:16.023Z,37.95
2023-02-13T11:36:30.476Z,34.75
2023-02-13T11:41:41.041Z,28.85
2023-02-13T11:47:02.236Z,32.38
2023-02-13T11:52:07.876Z,38.17
2023-02-13T11:57:32.940Z,35.72
2023-02-13T12:02:50.338Z,40.65
2023-02-13T12:07:54.378Z,36.80
2023-02-13T12:13:11.168Z,39.20
2023-02-13T12:18:41.925Z,35.95
2023-02-13T12:23:55.659Z,40.30
2023-02-13T12:29:34.260Z,34.83
2023-02-13T12:35:07.703Z,37.25
2023-02-13T12:40:21.371Z,39.30
2023-02-13T12:45:32.016Z,36.30
2023-02-13T12:50:53.931Z,36.42
2023-02-13T12:56:03.269Z,35.25
2023-02-13T13:01:33.390Z,36.85
2023-02-13T13:06:43.806Z,32.10
2023-02-13T13:12:19.443Z,38.42
2023-02-13T13:17:33.897Z,35.20
2023-02-13T13:22:44.594Z,34.97
2023-02-13T13:27:51.040Z,38.67
2023-02-13T13:32:59.569Z,39.92
2023-02-13T13:38:12.747Z,33.33
2023-02-13T13:43:26.157Z,34.50
2023-02-13T13:48:59.016Z,37.50
2023-02-13T13:54:00.415Z,35.78
2023-02-13T13:59:02.143Z,38.92
2023-02-13T14:04:32.412Z,39.03
2023-02-13T14:09:41.047Z,39.88
2023-02-13T14:14:46.792Z,36.13
2023-02-13T14:19:53.604Z,38.67
2023-02-13T14:24:58.275Z,38.03
2023-02-13T14:30:00.607Z,39.47
2023-02-13T14:35:19.074Z,36.67
2023-02-13T14:40:20.667Z,35.22
2023-02-13T14:45:27.405Z,37.03
2023-02-13T14:50:36.504Z,41.10
2023-02-13T14:55:45.155Z,37.53
2023-02-13T15:00:53.143Z,39.60
2023-02-13T15:05:59.640Z,35.92
2023-02-13T15:11:01.783Z,37.92
2023-02-13T15:16:08.016Z,37.78
2023-02-13T15:21:17.014Z,35.78
2023-02-13T15:26:23.978Z,40.00
2023-02-13T15:31:25.826Z,33.75
2023-02-13T15:36:35.975Z,33.00
2023-02-13T15:41:50.078Z,28.23
2023-02-13T15:46:53.459Z,32.55
2023-02-13T15:52:09.185Z,31.02
2023-02-13T15:57:12.424Z,39.35
2023-02-13T16:02:21.251Z,36.90
2023-02-13T16:07:23.299Z,33.50
2023-02-13T16:12:27.875Z,33.90
2023-02-13T16:17:33.501Z,30.40
2023-02-13T16:22:44.506Z,44.15
2023-02-13T16:27:51.182Z,41.22
2023-02-13T16:33:10.939Z,49.50
2023-02-13T16:38:34.009Z,43.30
2023-02-13T16:43:47.565Z,41.55
2023-02-13T16:49:01.889Z,43.90
2023-02-13T16:54:10.936Z,43.75
2023-02-13T16:59:24.704Z,50.50
2023-02-13T17:04:26.229Z,48.88
2023-02-13T17:09:32.431Z,49.55
2023-02-13T17:14:33.878Z,52.58
2023-02-13T17:19:37.135Z,51.40
2023-02-13T17:24:38.629Z,51.60
2023-02-13T17:29:40.218Z,49.50
2023-02-13T17:34:41.680Z,54.13
2023-02-13T17:39:43.107Z,51.90
2023-02-13T17:44:44.650Z,45.63
2023-02-13T17:49:47.605Z,55.63
2023-02-13T17:54:49.324Z,41.97
2023-02-13T17:59:50.813Z,41.67
2023-02-13T18:04:52.511Z,55.35
2023-02-13T18:09:53.983Z,54.80
2023-02-13T18:14:55.463Z,63.35
2023-02-13T18:19:57.825Z,56.25
2023-02-13T18:25:01.056Z,55.45
2023-02-13T18:30:02.881Z,59.00
2023-02-13T18:35:04.602Z,49.53
2023-02-13T18:40:07.893Z,32.50
2023-02-13T18:45:09.909Z,39.70
2023-02-13T18:50:11.808Z,45.63
2023-02-13T18:55:13.254Z,41.55
2023-02-13T19:00:16.074Z,39.83
2023-02-13T19:05:17.588Z,43.50
2023-02-13T19:10:19.009Z,40.55
2023-02-13T19:15:20.427Z,39.03
2023-02-13T19:20:22.190Z,39.72
2023-02-13T19:25:23.698Z,47.15
2023-02-13T19:30:26.168Z,34.42
2023-02-13T19:35:27.633Z,38.15
2023-02-13T19:40:29.050Z,46.20
2023-02-13T19:45:30.447Z,46.85
2023-02-13T19:50:31.897Z,51.50
2023-02-13T19:55:34.418Z,68.90
2023-02-13T20:00:36.115Z,67.32
2023-02-13T20:05:40.988Z,61.30
2023-02-13T20:10:46.055Z,61.17
2023-02-13T20:15:47.500Z,59.75
2023-02-13T20:20:49.380Z,63.60
2023-02-13T20:25:50.829Z,52.70
2023-02-13T20:30:52.443Z,57.42
2023-02-13T20:35:54.031Z,68.63
2023-02-13T20:40:55.775Z,148.43
2023-02-13T20:45:57.280Z,309.75
2023-02-13T20:51:00.782Z,204.02
2023-02-13T20:56:10.997Z,178.57
2023-02-13T21:01:15.158Z,68.78
2023-02-13T21:06:16.760Z,73.65
2023-02-13T21:11:19.165Z,100.18
2023-02-13T21:16:25.599Z,117.82
2023-02-13T21:21:29.686Z,182.02
2023-02-13T21:26:31.437Z,161.20
2023-02-13T21:31:39.239Z,140.63
2023-02-13T21:36:40.862Z,218.75
2023-02-13T21:41:44.623Z,148.23
2023-02-13T21:46:46.455Z,186.43
2023-02-13T21:51:48.065Z,212.05
2023-02-13T21:56:49.628Z,169.93
2023-02-13T22:01:52.358Z,160.73
2023-02-13T22:06:53.959Z,286.00
2023-02-13T22:11:55.452Z,216.05
2023-02-13T22:16:57.036Z,271.23
2023-02-13T22:21:58.591Z,227.20
2023-02-13T22:27:00.424Z,169.15
2023-02-13T22:32:02.160Z,223.50
2023-02-13T22:37:03.734Z,113.95
2023-02-13T22:42:05.422Z,330.30
2023-02-13T22:47:07.383Z,128.88
2023-02-13T22:52:10.724Z,178.93
2023-02-13T22:57:12.172Z,134.65
2023-02-13T23:02:13.672Z,130.68
2023-02-13T23:07:18.491Z,109.57
2023-02-13T23:12:38.790Z,322.25
2023-02-13T23:18:00.349Z,162.68
2023-02-13T23:23:04.390Z,119.00
2023-02-13T23:28:06.607Z,125.72
2023-02-13T23:33:08.273Z,297.23
2023-02-13T23:38:09.732Z,124.70
2023-02-13T23:43:11.665Z,132.07
2023-02-13T23:48:13.196Z,132.13
2023-02-13T23:53:14.606Z,50.40
2023-02-13T23:58:16.190Z,107.97
